首页
METAR-TAF:

METAR-TAF

机场 :

St. Augustine Airport

聖奧古斯丁, 佛罗里达州, 美国

纬度: 29-57-33N, 经度: 081-20-23W, 海拔: 3米

当前天气观测

该预报发布于16分钟前的20:56 UTC
风速7节,风向北转西北
温度 12°C
湿度 76%
气压 1013 hPa
能見度: 9.7公里
阴天层高于1500英尺

METAR: KSGJ 172056Z 34007KT 6SM HZ OVC015 12/08 A2991 RMK AO2 SLP126 T01170078 56009 $

时间: 16:12 (21:12 UTC)

预报

该预报发布于3小时和46分钟前的17:26 UTC
预报有效从17日的 18点(UTC)到 18日的 18点(UTC)
风速10节,风向北转西北
能見度: 10公里
阴天层高于1000英尺
从 18日的 0000点(UTC)
风速6节,风向北转西北
能見度: 10公里
散云层高于1500英尺
多云层高于25000英尺
从 18日的 1500点(UTC)
风速5节,风向西转西北
能見度: 10公里
散云层高于2500英尺
多云层高于10000英尺

TAF: KSGJ 171726Z 1718/1818 33010KT P6SM OVC010 FM180000 33006KT P6SM SCT015 BKN250 FM181500 30005KT P6SM SCT025 BKN100

超过4000个机场的气象观测和天气预报(METAR&TAF报告)。

可查询的气象台以黄色和红色小点在地图上表示。

将鼠标移到小点上方,可查看气象台名称。

然后点击查看天气观测和预报。

如需切换地图:点击带黑十字的绿色按钮放大地图;点击带横线的绿色按钮缩小地图;或者点击绿色箭头查看邻近地区的地图。


METAR-TAF: